Time;durP1;ratioP1;P1;durP2;ratioP2;P2;SDS_P1;SDS_P2;PMS_P1;PMS_P2;Temp;Humidity;BMP_temperature;BMP_pressure;BME280_temperature;BME280_humidity;BME280_pressure;Samples;Min_cycle;Max_cycle;Signal;HPM_P1;HPM_P2
2022/04/30 00:00:02;;;;;;;7.80;5.97;;;6.30;99.90;;;;;;5037627;28;20674;-76
2022/04/30 00:02:30;;;;;;;8.93;7.15;;;6.20;99.90;;;;;;5038436;28;20221;-78
2022/04/30 00:04:59;;;;;;;8.77;6.15;;;6.20;99.90;;;;;;5038561;28;20194;-77
2022/04/30 00:07:26;;;;;;;9.75;6.57;;;6.10;99.90;;;;;;5038395;28;20202;-78
2022/04/30 00:09:54;;;;;;;9.98;6.25;;;6.10;99.90;;;;;;5037631;28;20575;-78
2022/04/30 00:12:25;;;;;;;12.18;6.82;;;6.10;99.90;;;;;;5038019;28;20459;-79
2022/04/30 00:14:54;;;;;;;10.50;5.70;;;6.10;99.90;;;;;;5038237;28;20495;-78
2022/04/30 00:17:22;;;;;;;10.63;6.68;;;6.00;99.90;;;;;;5037684;28;20301;-78
2022/04/30 00:19:50;;;;;;;11.43;6.40;;;6.10;99.90;;;;;;5037896;28;20557;-78
2022/04/30 00:22:18;;;;;;;10.80;6.22;;;6.10;99.90;;;;;;5037906;28;20469;-78
2022/04/30 00:24:46;;;;;;;11.60;6.43;;;6.00;99.90;;;;;;5038439;28;20685;-78
2022/04/30 00:27:15;;;;;;;7.70;6.03;;;6.00;99.90;;;;;;5038510;28;20201;-79
2022/04/30 00:29:46;;;;;;;9.45;6.93;;;6.00;99.90;;;;;;5049733;28;20229;-78
2022/04/30 00:32:15;;;;;;;8.15;6.57;;;6.10;99.90;;;;;;5047427;28;20430;-77
2022/04/30 00:34:43;;;;;;;11.65;5.95;;;6.00;99.90;;;;;;5041582;28;20216;-78
2022/04/30 00:37:11;;;;;;;8.30;6.50;;;6.00;99.90;;;;;;5041269;28;20464;-78
2022/04/30 00:39:39;;;;;;;8.57;6.00;;;5.90;99.90;;;;;;5041480;28;20265;-78
2022/04/30 00:42:12;;;;;;;11.00;6.80;;;5.90;99.90;;;;;;5042757;28;20549;-78
2022/04/30 00:44:40;;;;;;;8.50;5.50;;;5.80;99.90;;;;;;5043729;28;20205;-79
2022/04/30 00:47:15;;;;;;;9.98;7.30;;;5.80;99.90;;;;;;5043768;28;20205;-79
2022/04/30 00:49:44;;;;;;;8.50;6.97;;;5.70;99.90;;;;;;5042886;28;20201;-78
2022/04/30 00:52:15;;;;;;;13.32;7.88;;;5.70;99.90;;;;;;5043026;28;20229;-79
2022/04/30 00:54:46;;;;;;;11.93;6.28;;;5.70;99.90;;;;;;5043566;28;20193;-78
2022/04/30 00:57:18;;;;;;;9.63;7.18;;;5.70;99.90;;;;;;5042366;28;20504;-78
2022/04/30 00:59:50;;;;;;;8.98;5.90;;;5.60;99.90;;;;;;5042300;28;20204;-77
2022/04/30 01:02:20;;;;;;;7.70;5.45;;;5.60;99.90;;;;;;5045559;28;20701;-78
2022/04/30 01:04:48;;;;;;;8.27;6.45;;;5.60;99.90;;;;;;5045403;28;20202;-78
2022/04/30 01:07:18;;;;;;;15.80;7.68;;;5.60;99.90;;;;;;5041497;28;20293;-77
2022/04/30 01:09:48;;;;;;;12.02;6.60;;;5.50;99.90;;;;;;5041723;28;20903;-76
2022/04/30 01:12:16;;;;;;;9.18;6.75;;;5.50;99.90;;;;;;5042088;28;20308;-78
2022/04/30 01:14:46;;;;;;;8.45;6.95;;;5.50;99.90;;;;;;5041810;28;20201;-78
2022/04/30 01:17:15;;;;;;;8.90;6.75;;;5.50;99.90;;;;;;5037583;28;20319;-79
2022/04/30 01:19:47;;;;;;;11.50;6.95;;;5.50;99.90;;;;;;5023689;28;20220;-74
2022/04/30 01:22:24;;;;;;;12.18;6.97;;;5.50;99.90;;;;;;5021989;28;20226;-72
2022/04/30 01:24:56;;;;;;;9.23;6.93;;;5.50;99.90;;;;;;5019865;28;20212;-73
2022/04/30 01:27:26;;;;;;;21.38;8.50;;;5.50;99.90;;;;;;5019747;28;20216;-73
2022/04/30 01:29:54;;;;;;;10.43;7.60;;;5.50;99.90;;;;;;5019861;28;20203;-72
2022/04/30 01:38:02;;;;;;;10.07;6.57;;;5.40;99.90;;;;;;5025262;28;20706;-75
2022/04/30 01:40:32;;;;;;;13.57;7.22;;;5.40;99.90;;;;;;5028632;28;20666;-77
2022/04/30 01:43:02;;;;;;;16.90;7.78;;;5.40;99.90;;;;;;5038471;28;20209;-78
2022/04/30 01:45:30;;;;;;;14.05;8.18;;;5.40;99.90;;;;;;5039958;28;20466;-70
2022/04/30 01:48:01;;;;;;;11.90;7.15;;;5.30;99.90;;;;;;5038365;28;20658;-71
2022/04/30 01:50:29;;;;;;;11.65;7.97;;;5.40;99.90;;;;;;5021374;28;20211;-76
2022/04/30 01:52:56;;;;;;;11.00;7.63;;;5.40;99.90;;;;;;5035697;28;20725;-77
2022/04/30 01:55:24;;;;;;;8.88;7.88;;;5.40;99.90;;;;;;5039620;28;20205;-76
2022/04/30 01:57:54;;;;;;;14.38;8.13;;;5.40;99.90;;;;;;5039272;28;20775;-77
2022/04/30 02:00:21;;;;;;;14.20;8.43;;;5.30;99.90;;;;;;5039235;28;20205;-77
2022/04/30 02:02:52;;;;;;;12.55;8.68;;;5.30;99.90;;;;;;5035830;28;20320;-76
2022/04/30 02:05:22;;;;;;;15.48;9.13;;;5.30;99.90;;;;;;5039888;28;20200;-77
2022/04/30 02:07:53;;;;;;;8.93;7.30;;;5.40;99.90;;;;;;5038889;28;20201;-73
2022/04/30 02:10:22;;;;;;;16.00;9.07;;;5.40;99.90;;;;;;5039940;28;20666;-77
2022/04/30 02:12:51;;;;;;;12.93;9.75;;;5.40;99.90;;;;;;5039542;28;20505;-77
2022/04/30 02:15:21;;;;;;;10.63;9.48;;;5.40;99.90;;;;;;5042265;28;20673;-76
2022/04/30 02:17:49;;;;;;;12.38;9.15;;;5.40;99.90;;;;;;5034373;28;20605;-75
2022/04/30 02:20:24;;;;;;;10.07;8.60;;;5.40;99.90;;;;;;5027407;28;20210;-76
2022/04/30 02:22:54;;;;;;;13.23;9.18;;;5.40;99.90;;;;;;5029373;28;20509;-75
2022/04/30 02:25:23;;;;;;;14.05;10.10;;;5.40;99.90;;;;;;5024211;28;20234;-75
2022/04/30 02:27:53;;;;;;;13.60;9.95;;;5.30;99.90;;;;;;5037445;28;20324;-74
2022/04/30 02:30:24;;;;;;;14.52;9.88;;;5.30;99.90;;;;;;5038775;28;20205;-74
2022/04/30 02:32:53;;;;;;;14.75;10.55;;;5.30;99.90;;;;;;5020468;28;20488;-74
2022/04/30 02:35:24;;;;;;;14.70;9.45;;;5.30;99.90;;;;;;5019053;28;20437;-74
2022/04/30 02:37:55;;;;;;;16.27;11.30;;;5.30;99.90;;;;;;5023185;28;20467;-74
2022/04/30 02:40:25;;;;;;;13.27;10.48;;;5.20;99.90;;;;;;5038929;28;20212;-73
2022/04/30 02:42:54;;;;;;;14.52;10.63;;;5.20;99.90;;;;;;5038914;28;20240;-74
2022/04/30 02:45:23;;;;;;;19.15;10.60;;;5.20;99.90;;;;;;5039578;28;20591;-74
2022/04/30 02:47:55;;;;;;;14.35;9.80;;;5.20;99.90;;;;;;5042271;28;20267;-74
2022/04/30 02:50:23;;;;;;;17.95;11.35;;;5.30;99.90;;;;;;5033020;28;20404;-74
2022/04/30 02:52:54;;;;;;;13.57;10.13;;;5.30;99.90;;;;;;5019067;28;20372;-74
2022/04/30 02:55:22;;;;;;;18.40;11.85;;;5.20;99.90;;;;;;5017695;28;20257;-73
2022/04/30 03:00:42;;;;;;;20.10;11.45;;;5.20;99.90;;;;;;5018780;28;20440;-74
2022/04/30 03:03:12;;;;;;;13.98;10.05;;;5.20;99.90;;;;;;5037663;28;20300;-74
2022/04/30 03:05:43;;;;;;;17.52;11.35;;;5.20;99.90;;;;;;5038603;28;20214;-74
2022/04/30 03:08:13;;;;;;;14.32;10.23;;;5.20;99.90;;;;;;5038159;28;20202;-75
2022/04/30 03:10:42;;;;;;;21.00;11.70;;;5.30;99.90;;;;;;5038617;28;20197;-75
2022/04/30 03:13:10;;;;;;;14.13;9.65;;;5.20;99.90;;;;;;5038419;28;20205;-74
2022/04/30 03:15:43;;;;;;;14.05;10.48;;;5.20;99.90;;;;;;5038420;28;20205;-74
2022/04/30 03:23:43;;;;;;;17.38;11.20;;;5.20;99.90;;;;;;5038732;28;20205;-73
2022/04/30 03:26:12;;;;;;;16.45;11.55;;;5.20;99.90;;;;;;5038999;28;20208;-74
2022/04/30 03:28:42;;;;;;;16.98;10.70;;;5.20;99.90;;;;;;5039131;28;20744;-74
2022/04/30 03:31:12;;;;;;;14.32;9.50;;;5.20;99.90;;;;;;5038749;28;20519;-73
2022/04/30 03:33:40;;;;;;;11.73;9.52;;;5.20;99.90;;;;;;5039204;28;20768;-74
2022/04/30 03:36:10;;;;;;;15.40;11.27;;;5.20;99.90;;;;;;5039038;28;20205;-75
2022/04/30 03:38:38;;;;;;;19.80;9.10;;;5.20;99.90;;;;;;5038133;28;20358;-74
2022/04/30 03:41:06;;;;;;;18.35;9.90;;;5.20;99.90;;;;;;5038704;28;20226;-74
2022/04/30 03:43:34;;;;;;;13.40;10.07;;;5.20;99.90;;;;;;5038636;28;20213;-75
2022/04/30 03:46:02;;;;;;;17.60;10.55;;;5.20;99.90;;;;;;5038420;28;20320;-73
2022/04/30 03:48:32;;;;;;;13.45;10.27;;;5.20;99.90;;;;;;5039760;28;20252;-74
2022/04/30 03:51:00;;;;;;;13.98;9.75;;;5.10;99.90;;;;;;5040049;28;20220;-74
2022/04/30 03:53:28;;;;;;;18.50;9.85;;;5.10;99.90;;;;;;5040132;28;20216;-74
2022/04/30 03:55:56;;;;;;;14.00;9.88;;;5.10;99.90;;;;;;5040379;28;20207;-74
2022/04/30 03:58:25;;;;;;;16.40;10.38;;;5.10;99.90;;;;;;5039192;28;20236;-74
2022/04/30 04:00:53;;;;;;;17.05;9.88;;;5.10;99.90;;;;;;5038842;28;20198;-72
2022/04/30 04:03:21;;;;;;;13.15;9.60;;;5.10;99.90;;;;;;5038364;28;20394;-74
2022/04/30 04:05:51;;;;;;;12.65;10.18;;;5.10;99.90;;;;;;5038355;28;20665;-74
2022/04/30 04:08:20;;;;;;;15.82;9.10;;;5.10;99.90;;;;;;5041761;28;20263;-74
2022/04/30 04:10:48;;;;;;;14.05;10.15;;;5.10;99.90;;;;;;5041906;28;20267;-73
2022/04/30 04:18:51;;;;;;;11.88;9.40;;;5.20;99.90;;;;;;5041486;28;20217;-74
2022/04/30 04:21:21;;;;;;;13.82;9.65;;;5.20;99.90;;;;;;5041522;28;20225;-73
2022/04/30 04:26:34;;;;;;;18.45;10.38;;;5.20;99.90;;;;;;5041031;28;20300;-74
2022/04/30 04:29:02;;;;;;;14.23;9.18;;;5.20;99.90;;;;;;5041191;28;20293;-73
2022/04/30 04:31:30;;;;;;;11.18;9.25;;;5.30;99.90;;;;;;5041115;28;20226;-74
2022/04/30 04:33:58;;;;;;;15.23;10.50;;;5.30;99.90;;;;;;5043565;28;20293;-73
2022/04/30 04:36:27;;;;;;;16.35;8.70;;;5.40;99.90;;;;;;5043481;28;20284;-73
2022/04/30 04:38:55;;;;;;;11.75;10.27;;;5.40;99.90;;;;;;5040976;28;20595;-73
2022/04/30 04:41:23;;;;;;;13.73;9.68;;;5.50;99.90;;;;;;5041156;28;20462;-73
2022/04/30 04:43:50;;;;;;;16.63;9.40;;;5.60;99.90;;;;;;5046804;28;20261;-73
2022/04/30 04:46:18;;;;;;;18.95;10.35;;;5.60;99.90;;;;;;5050601;28;20757;-73
2022/04/30 04:48:46;;;;;;;14.68;9.82;;;5.60;99.90;;;;;;5052818;28;20206;-73
2022/04/30 04:51:14;;;;;;;12.82;9.70;;;5.60;99.90;;;;;;5054210;28;20291;-74
2022/04/30 04:53:43;;;;;;;16.77;9.60;;;5.60;99.90;;;;;;5055916;28;20223;-73
2022/04/30 04:56:11;;;;;;;12.07;8.60;;;5.60;99.90;;;;;;5054041;28;20662;-74
2022/04/30 04:58:40;;;;;;;15.27;8.77;;;5.70;99.90;;;;;;5055926;28;20471;-72
2022/04/30 05:01:08;;;;;;;9.50;8.05;;;5.80;99.90;;;;;;5053820;28;20222;-72
2022/04/30 05:03:36;;;;;;;12.23;9.18;;;5.80;99.90;;;;;;5045789;28;20293;-72
2022/04/30 05:06:04;;;;;;;12.55;8.98;;;5.80;99.90;;;;;;5043104;28;20275;-73
2022/04/30 05:08:32;;;;;;;13.70;7.68;;;5.70;99.90;;;;;;5053480;28;20460;-73
2022/04/30 05:11:01;;;;;;;14.10;7.97;;;5.80;99.90;;;;;;5043905;28;20285;-73
2022/04/30 05:13:29;;;;;;;15.18;9.07;;;5.80;99.90;;;;;;5030197;28;20207;-73
2022/04/30 05:15:57;;;;;;;11.77;7.38;;;5.80;99.90;;;;;;5020388;28;20239;-72
2022/04/30 05:18:25;;;;;;;11.50;7.50;;;5.80;99.90;;;;;;5020926;28;20314;-72
2022/04/30 05:20:53;;;;;;;12.55;7.35;;;5.80;99.90;;;;;;5021949;28;20220;-73
2022/04/30 05:23:21;;;;;;;8.95;7.45;;;5.90;99.90;;;;;;5020755;28;20306;-74
2022/04/30 05:25:49;;;;;;;14.10;6.50;;;5.90;99.90;;;;;;5020755;28;20214;-75
2022/04/30 05:28:18;;;;;;;7.32;6.60;;;5.90;99.90;;;;;;5036594;28;20206;-73
2022/04/30 05:30:46;;;;;;;7.38;6.18;;;6.00;99.90;;;;;;5040269;28;20217;-77
2022/04/30 05:33:13;;;;;;;6.97;5.82;;;6.00;99.90;;;;;;5028261;28;20209;-70
2022/04/30 05:35:41;;;;;;;6.38;5.78;;;6.10;99.90;;;;;;5033405;28;20214;-71
2022/04/30 05:38:09;;;;;;;9.55;5.68;;;6.10;99.90;;;;;;5036326;28;20750;-71
2022/04/30 05:40:37;;;;;;;7.80;6.90;;;6.20;99.90;;;;;;5026819;28;20201;-71
2022/04/30 05:43:06;;;;;;;8.10;5.72;;;6.10;99.90;;;;;;5030542;28;20297;-70
2022/04/30 05:45:35;;;;;;;12.73;7.10;;;6.00;99.90;;;;;;5021455;28;20338;-70
2022/04/30 05:48:04;;;;;;;7.10;6.40;;;6.10;99.90;;;;;;5032550;28;20252;-71
2022/04/30 05:50:32;;;;;;;9.35;6.25;;;6.10;99.90;;;;;;5021691;28;20273;-71
2022/04/30 05:53:00;;;;;;;5.22;4.72;;;6.10;99.90;;;;;;5032664;28;20745;-70
2022/04/30 05:55:28;;;;;;;8.52;6.00;;;6.20;99.90;;;;;;5025855;28;20206;-70
2022/04/30 05:57:56;;;;;;;7.38;5.07;;;6.20;99.90;;;;;;5028047;28;20814;-70
2022/04/30 06:00:24;;;;;;;8.57;6.18;;;6.20;99.90;;;;;;5023832;28;20213;-71
2022/04/30 06:02:54;;;;;;;7.95;5.60;;;6.30;99.90;;;;;;5021306;28;20321;-70
2022/04/30 06:05:23;;;;;;;6.50;5.82;;;6.40;99.90;;;;;;5020801;28;20217;-71
2022/04/30 06:07:51;;;;;;;7.18;5.95;;;6.50;99.90;;;;;;5024179;28;20202;-70
2022/04/30 06:10:19;;;;;;;8.68;5.53;;;6.60;99.90;;;;;;5020824;28;20203;-71
2022/04/30 06:12:47;;;;;;;9.45;5.70;;;6.60;99.90;;;;;;5021083;28;20317;-70
2022/04/30 06:15:15;;;;;;;7.60;5.22;;;6.70;99.90;;;;;;5020486;28;20301;-70
2022/04/30 06:17:43;;;;;;;6.63;5.25;;;6.70;99.90;;;;;;5020068;28;20206;-70
2022/04/30 06:20:13;;;;;;;5.32;4.82;;;6.90;99.90;;;;;;5019978;28;20226;-70
2022/04/30 06:22:41;;;;;;;6.20;5.22;;;7.00;99.90;;;;;;5020317;28;20220;-70
2022/04/30 06:25:10;;;;;;;6.97;5.10;;;7.10;99.90;;;;;;5037068;28;20319;-70
2022/04/30 06:27:38;;;;;;;5.53;4.70;;;7.20;99.90;;;;;;5035112;28;20551;-71
2022/04/30 06:30:09;;;;;;;6.82;4.30;;;7.30;99.90;;;;;;5039170;28;20202;-71
2022/04/30 06:32:37;;;;;;;5.50;4.88;;;7.40;99.90;;;;;;5039444;28;20289;-71
2022/04/30 06:35:06;;;;;;;7.05;4.50;;;7.60;99.90;;;;;;5038611;28;20221;-70
2022/04/30 06:37:35;;;;;;;6.07;4.30;;;7.70;99.90;;;;;;5038427;28;20216;-71
2022/04/30 06:40:05;;;;;;;8.88;5.00;;;7.80;99.90;;;;;;5037586;28;20213;-72
2022/04/30 06:42:40;;;;;;;8.27;4.40;;;7.90;99.90;;;;;;5038247;28;20253;-70
2022/04/30 06:45:10;;;;;;;4.25;3.85;;;8.00;99.90;;;;;;5039134;28;20259;-74
2022/04/30 06:47:38;;;;;;;6.10;4.78;;;8.20;99.90;;;;;;5035891;28;20200;-74
2022/04/30 06:50:08;;;;;;;5.85;4.22;;;8.30;99.90;;;;;;5038110;28;20244;-73
2022/04/30 06:57:07;;;;;;;4.28;3.83;;;8.40;99.90;;;;;;5038575;28;20732;-73
2022/04/30 06:58:11;;;;;;;5.75;4.00;;;8.70;99.90;;;;;;5037397;28;20204;-72
2022/04/30 07:03:29;;;;;;;5.75;3.00;;;9.00;99.90;;;;;;5035525;28;20692;-73
2022/04/30 07:06:03;;;;;;;6.50;3.97;;;9.10;99.90;;;;;;5037650;28;20567;-72
2022/04/30 07:08:34;;;;;;;4.32;3.45;;;9.10;99.90;;;;;;5037560;28;20225;-73
2022/04/30 07:11:03;;;;;;;3.67;3.42;;;9.30;99.90;;;;;;5037734;28;20277;-73
2022/04/30 07:13:31;;;;;;;3.20;2.58;;;9.30;99.90;;;;;;5038167;28;20207;-72
2022/04/30 07:15:59;;;;;;;2.83;2.60;;;9.40;99.90;;;;;;5025907;28;20410;-73
2022/04/30 07:18:27;;;;;;;4.85;3.35;;;9.50;99.90;;;;;;5035619;28;20575;-72
2022/04/30 07:20:55;;;;;;;5.75;3.65;;;9.60;99.90;;;;;;5038243;28;20681;-73
2022/04/30 07:23:23;;;;;;;4.47;2.70;;;9.60;99.90;;;;;;5041848;28;20206;-73
2022/04/30 07:25:53;;;;;;;7.32;4.78;;;9.80;99.90;;;;;;5047949;28;20208;-73
2022/04/30 07:28:22;;;;;;;7.30;3.88;;;9.80;99.90;;;;;;5039879;28;20235;-72
2022/04/30 07:30:51;;;;;;;4.55;3.63;;;9.90;99.90;;;;;;5022411;28;20583;-72
2022/04/30 07:33:19;;;;;;;5.10;4.05;;;10.00;99.90;;;;;;5030285;28;20210;-73
2022/04/30 07:35:47;;;;;;;5.50;3.80;;;10.10;99.90;;;;;;5037738;28;20309;-72
2022/04/30 07:38:15;;;;;;;4.50;4.10;;;10.20;99.90;;;;;;5037959;28;20212;-70
2022/04/30 07:40:42;;;;;;;4.50;4.10;;;10.10;99.90;;;;;;5037544;28;20466;-69
2022/04/30 07:43:11;;;;;;;5.53;4.00;;;10.10;99.90;;;;;;5042412;28;20463;-68
2022/04/30 07:45:39;;;;;;;3.97;3.60;;;10.20;99.90;;;;;;5025839;28;20637;-72
2022/04/30 07:48:08;;;;;;;3.92;3.63;;;10.30;99.90;;;;;;5023272;28;20244;-72
2022/04/30 07:50:36;;;;;;;3.47;2.78;;;10.40;99.90;;;;;;5033933;28;20198;-73
2022/04/30 07:53:05;;;;;;;3.90;3.53;;;10.40;99.90;;;;;;5043459;28;20808;-73
2022/04/30 07:55:33;;;;;;;4.55;4.25;;;10.40;99.90;;;;;;5043315;28;20523;-71
2022/04/30 07:58:03;;;;;;;5.38;3.78;;;10.50;99.90;;;;;;5045149;28;20221;-71
2022/04/30 08:00:32;;;;;;;4.55;2.88;;;10.60;99.90;;;;;;5046355;28;20376;-71
2022/04/30 08:03:00;;;;;;;3.45;3.13;;;10.70;99.90;;;;;;5042449;28;20312;-73
2022/04/30 08:05:29;;;;;;;4.30;3.73;;;10.80;99.90;;;;;;5043254;28;20212;-73
2022/04/30 08:07:59;;;;;;;4.47;2.95;;;10.90;99.90;;;;;;5034117;28;20740;-72
2022/04/30 08:10:27;;;;;;;3.57;3.30;;;11.00;99.90;;;;;;5041826;28;20189;-73
2022/04/30 08:12:56;;;;;;;4.18;2.80;;;11.20;99.90;;;;;;5039438;28;20552;-73
2022/04/30 08:15:25;;;;;;;7.75;2.83;;;11.30;99.90;;;;;;5037864;28;20666;-76
2022/04/30 08:17:54;;;;;;;3.20;2.85;;;11.40;99.90;;;;;;5040254;28;20730;-77
2022/04/30 08:20:23;;;;;;;3.35;3.15;;;11.50;99.90;;;;;;5043004;28;20304;-74
2022/04/30 08:22:51;;;;;;;3.50;3.23;;;11.60;99.90;;;;;;5041010;28;20218;-77
2022/04/30 08:25:19;;;;;;;5.20;3.10;;;11.60;99.90;;;;;;5042851;28;20523;-77
2022/04/30 08:27:47;;;;;;;3.30;3.00;;;11.70;99.90;;;;;;5043592;28;20236;-75
2022/04/30 08:30:18;;;;;;;4.20;3.20;;;11.80;99.90;;;;;;5043172;28;20559;-76
2022/04/30 08:32:48;;;;;;;3.23;2.90;;;11.80;99.90;;;;;;5043373;28;20575;-75
2022/04/30 08:35:17;;;;;;;5.10;2.77;;;11.80;99.90;;;;;;5042913;28;20432;-74
2022/04/30 08:38:05;;;;;;;3.77;3.50;;;11.90;99.90;;;;;;5040280;28;20483;-77
2022/04/30 08:40:34;;;;;;;2.87;2.67;;;11.90;99.90;;;;;;5039255;28;20550;-77
2022/04/30 08:43:09;;;;;;;2.10;1.87;;;12.00;99.90;;;;;;5043221;28;20495;-78
2022/04/30 08:45:38;;;;;;;3.30;2.23;;;12.00;99.90;;;;;;5042683;28;20466;-77
2022/04/30 08:48:08;;;;;;;2.63;2.43;;;12.00;99.90;;;;;;5040806;28;20502;-78
2022/04/30 08:50:40;;;;;;;2.93;2.50;;;11.90;99.90;;;;;;5041849;28;20778;-77
2022/04/30 08:53:12;;;;;;;2.10;1.90;;;11.90;99.90;;;;;;5037250;28;20499;-78
2022/04/30 08:55:40;;;;;;;2.83;2.20;;;11.90;99.90;;;;;;5041547;28;20440;-78
2022/04/30 08:58:08;;;;;;;2.23;2.13;;;12.00;99.90;;;;;;5036058;28;20452;-79
2022/04/30 09:00:43;;;;;;;4.27;2.37;;;12.10;99.90;;;;;;5037951;28;20586;-78
2022/04/30 09:03:14;;;;;;;5.07;2.80;;;12.10;99.90;;;;;;5035666;28;20531;-75
2022/04/30 09:05:44;;;;;;;2.00;1.90;;;12.10;99.90;;;;;;5041127;28;20559;-70
2022/04/30 09:08:12;;;;;;;5.93;2.10;;;12.20;99.90;;;;;;5034572;28;20836;-71
2022/04/30 09:10:41;;;;;;;2.80;2.00;;;12.30;99.90;;;;;;5030834;28;20527;-74
2022/04/30 09:13:10;;;;;;;3.33;2.10;;;12.30;99.90;;;;;;5027175;28;20468;-70
2022/04/30 09:15:39;;;;;;;3.07;2.87;;;12.30;99.90;;;;;;5029097;28;20994;-70
2022/04/30 09:18:09;;;;;;;7.00;2.13;;;12.40;99.90;;;;;;5036574;28;20541;-70
2022/04/30 09:20:47;;;;;;;1.90;1.80;;;12.40;99.90;;;;;;5037395;28;20482;-71
2022/04/30 09:23:25;;;;;;;3.43;1.60;;;12.50;99.90;;;;;;5038085;28;21001;-73
2022/04/30 09:25:53;;;;;;;2.60;2.50;;;12.60;99.90;;;;;;5038067;28;20943;-73
2022/04/30 09:28:27;;;;;;;2.57;2.37;;;12.70;99.90;;;;;;5037480;28;20529;-72
2022/04/30 09:31:06;;;;;;;3.00;2.10;;;12.90;99.90;;;;;;5040503;28;20451;-73
2022/04/30 09:33:35;;;;;;;4.03;1.87;;;12.80;99.90;;;;;;5034552;28;20529;-73
2022/04/30 09:38:51;;;;;;;5.13;2.27;;;13.00;99.90;;;;;;5027193;28;20717;-72
2022/04/30 09:41:23;;;;;;;3.43;2.10;;;13.00;99.90;;;;;;5052300;28;20499;-71
2022/04/30 09:44:04;;;;;;;2.73;2.07;;;13.10;99.90;;;;;;5036049;28;20793;-70
2022/04/30 09:46:33;;;;;;;1.93;1.80;;;13.10;99.90;;;;;;5040350;28;20466;-70
2022/04/30 09:54:37;;;;;;;6.93;2.50;;;13.20;99.90;;;;;;5019882;28;20460;-71
2022/04/30 09:57:07;;;;;;;2.30;2.20;;;13.30;99.90;;;;;;5025982;28;20761;-70
2022/04/30 09:59:37;;;;;;;5.27;2.90;;;13.30;99.90;;;;;;5030005;28;20841;-72
2022/04/30 10:02:06;;;;;;;6.73;2.40;;;13.40;99.90;;;;;;5021822;28;20984;-71
2022/04/30 10:04:35;;;;;;;2.97;2.30;;;13.30;99.90;;;;;;5027444;28;20533;-69
2022/04/30 10:07:06;;;;;;;5.20;2.27;;;13.40;99.90;;;;;;5025682;28;20822;-69
2022/04/30 10:09:37;;;;;;;3.33;3.10;;;13.50;99.90;;;;;;5021892;28;20475;-71
2022/04/30 10:15:52;;;;;;;3.30;3.00;;;13.80;99.90;;;;;;4995604;28;20446;-89
2022/04/30 10:18:53;;;;;;;3.30;2.70;;;13.90;99.90;;;;;;4986360;28;20438;-89
2022/04/30 10:22:25;;;;;;;3.63;3.20;;;13.90;99.90;;;;;;4996154;28;20954;-89
2022/04/30 10:25:38;;;;;;;3.57;3.27;;;13.90;99.90;;;;;;4984945;28;20505;-90
2022/04/30 10:31:24;;;;;;;3.33;3.03;;;14.10;99.90;;;;;;5012715;22;20486;-90
2022/04/30 10:34:39;;;;;;;5.60;3.30;;;14.30;99.90;;;;;;4993254;28;20449;-90
2022/04/30 10:37:32;;;;;;;3.30;3.03;;;14.50;99.90;;;;;;4926079;29;20486;-89
2022/04/30 10:40:03;;;;;;;3.63;3.13;;;14.70;99.90;;;;;;4911488;29;20489;-90
2022/04/30 10:43:32;;;;;;;3.83;3.53;;;14.90;99.90;;;;;;4879944;29;20441;-90
2022/04/30 10:46:21;;;;;;;4.93;3.27;;;15.00;99.90;;;;;;4956066;28;20547;-91
2022/04/30 11:05:23;;;;;;;3.37;3.07;;;14.70;99.60;;;;;;5039088;28;21147;-90
2022/04/30 11:08:18;;;;;;;2.97;2.77;;;14.80;99.90;;;;;;5033264;28;20453;-89
2022/04/30 11:14:11;;;;;;;2.53;2.43;;;15.00;99.90;;;;;;4989861;28;20672;-91
2022/04/30 11:19:29;;;;;;;5.50;3.10;;;15.10;99.10;;;;;;5096833;22;20524;-88
2022/04/30 11:22:02;;;;;;;3.10;2.90;;;15.20;99.40;;;;;;5043358;28;20468;-92
2022/04/30 11:24:37;;;;;;;2.97;2.57;;;15.30;99.40;;;;;;5042200;28;20465;-92
2022/04/30 11:48:03;;;;;;;3.60;2.33;;;15.90;98.50;;;;;;5066298;28;20484;-94
2022/04/30 11:51:16;;;;;;;3.40;3.13;;;15.90;98.30;;;;;;5057363;28;20523;-92
2022/04/30 11:58:03;;;;;;;;;;;;;;;;;;;;;
2022/04/30 12:44:09;;;;;;;3.30;3.10;;;16.60;97.40;;;;;;5069004;28;20484;-93
2022/04/30 12:46:46;;;;;;;4.90;3.03;;;16.60;97.20;;;;;;5071121;28;20571;-92
2022/04/30 12:49:28;;;;;;;2.80;2.60;;;16.70;96.90;;;;;;5067808;28;20822;-92
2022/04/30 13:13:34;;;;;;;3.30;3.00;;;16.60;96.90;;;;;;4888348;29;20490;-93
2022/04/30 13:39:44;;;;;;;3.20;3.00;;;17.40;95.50;;;;;;5052856;28;20465;-91
2022/04/30 13:45:32;;;;;;;3.80;2.77;;;17.30;95.70;;;;;;5003079;28;20483;-91
2022/04/30 13:48:04;;;;;;;2.87;2.47;;;17.30;95.50;;;;;;4997060;28;20551;-91
2022/04/30 13:50:35;;;;;;;2.40;2.20;;;17.30;95.40;;;;;;4996661;28;20487;-91
2022/04/30 13:53:12;;;;;;;2.50;2.30;;;17.30;95.30;;;;;;4988642;28;20436;-90
2022/04/30 13:55:57;;;;;;;2.93;2.67;;;17.30;95.60;;;;;;4977537;28;20463;-92
2022/04/30 13:58:45;;;;;;;4.40;2.83;;;17.30;95.50;;;;;;4983753;28;20487;-91
2022/04/30 14:04:20;;;;;;;2.80;2.60;;;17.10;95.80;;;;;;4961765;28;20540;-94
2022/04/30 14:06:59;;;;;;;4.37;2.60;;;17.10;96.00;;;;;;4965464;28;20504;-94
2022/04/30 14:09:35;;;;;;;4.43;2.70;;;17.10;96.20;;;;;;4983855;28;20474;-91
2022/04/30 14:12:33;;;;;;;2.53;2.33;;;17.10;96.60;;;;;;4977831;28;20502;-94
2022/04/30 14:15:54;;;;;;;3.43;2.37;;;17.10;96.00;;;;;;4963085;28;21051;-92
2022/04/30 14:18:34;;;;;;;4.57;2.90;;;16.90;96.10;;;;;;4983476;28;20548;-90
2022/04/30 14:21:08;;;;;;;3.33;3.03;;;16.80;96.40;;;;;;5000579;28;20557;-91
2022/04/30 14:23:47;;;;;;;3.87;3.47;;;16.70;96.60;;;;;;4992313;28;20483;-91
2022/04/30 14:26:17;;;;;;;2.80;2.60;;;16.70;96.60;;;;;;4991335;28;20677;-91
2022/04/30 14:28:50;;;;;;;3.33;2.47;;;16.60;96.20;;;;;;4991042;28;20453;-89
2022/04/30 14:31:23;;;;;;;3.27;2.97;;;16.50;96.00;;;;;;4991667;28;20478;-89
2022/04/30 14:33:52;;;;;;;2.77;2.57;;;16.50;96.30;;;;;;4995303;28;20629;-90
2022/04/30 14:36:30;;;;;;;2.60;2.50;;;16.50;96.30;;;;;;5010073;28;21150;-88
2022/04/30 14:38:58;;;;;;;2.73;2.40;;;16.40;96.40;;;;;;5011390;28;20520;-87
2022/04/30 14:41:27;;;;;;;3.13;2.93;;;16.40;96.10;;;;;;5010279;28;20469;-85
2022/04/30 14:44:03;;;;;;;2.80;2.60;;;16.20;96.60;;;;;;5030368;28;20453;-87
2022/04/30 14:46:52;;;;;;;3.20;3.00;;;16.00;97.00;;;;;;5033461;28;20447;-87
2022/04/30 14:49:23;;;;;;;4.40;3.00;;;15.90;97.50;;;;;;5029613;28;20978;-85
2022/04/30 14:51:52;;;;;;;5.63;3.17;;;15.90;97.20;;;;;;5029074;28;20515;-85
2022/04/30 14:54:21;;;;;;;5.00;3.30;;;16.00;97.20;;;;;;5030062;28;20437;-86
2022/04/30 14:56:54;;;;;;;3.50;3.20;;;16.10;97.20;;;;;;5030374;28;20449;-85
2022/04/30 14:59:50;;;;;;;3.13;2.67;;;16.10;97.40;;;;;;5028946;28;20489;-87
2022/04/30 15:02:18;;;;;;;4.40;2.37;;;16.10;97.70;;;;;;5006293;28;20474;-86
2022/04/30 15:05:07;;;;;;;4.00;2.40;;;16.30;97.30;;;;;;5029663;28;20484;-89
2022/04/30 15:08:06;;;;;;;3.53;3.27;;;16.30;97.00;;;;;;5032979;28;20941;-90
2022/04/30 15:10:37;;;;;;;2.83;2.63;;;16.20;96.90;;;;;;5014416;28;20576;-86
2022/04/30 15:13:05;;;;;;;3.30;2.97;;;16.20;97.00;;;;;;5018511;28;20449;-84
2022/04/30 15:15:39;;;;;;;2.93;2.70;;;16.20;97.10;;;;;;5031284;28;20977;-88
2022/04/30 15:18:10;;;;;;;7.10;2.40;;;16.10;96.90;;;;;;5026418;28;20441;-88
2022/04/30 15:20:39;;;;;;;3.13;2.77;;;15.90;97.00;;;;;;5032161;28;20473;-87
2022/04/30 15:23:12;;;;;;;4.90;3.03;;;15.70;97.00;;;;;;5040265;28;21099;-86
2022/04/30 15:29:00;;;;;;;4.70;3.03;;;15.50;97.00;;;;;;5029079;28;20444;-86
2022/04/30 15:31:36;;;;;;;3.07;2.87;;;15.40;97.50;;;;;;5029414;28;20449;-85
2022/04/30 15:34:10;;;;;;;3.20;2.90;;;15.40;97.30;;;;;;5042264;28;20472;-88
2022/04/30 15:36:42;;;;;;;3.80;2.60;;;15.50;97.10;;;;;;5045504;28;20469;-85
2022/04/30 15:39:11;;;;;;;2.90;2.70;;;15.60;97.00;;;;;;5044595;28;20499;-87
2022/04/30 15:41:40;;;;;;;4.77;3.40;;;15.60;97.30;;;;;;5046768;28;20455;-84
2022/04/30 15:44:09;;;;;;;2.80;2.60;;;15.70;97.00;;;;;;5045415;28;20484;-86
2022/04/30 15:52:53;;;;;;;2.60;2.40;;;15.40;97.40;;;;;;5032872;28;20449;-85
2022/04/30 15:55:27;;;;;;;4.53;3.30;;;15.40;97.40;;;;;;5031930;28;20453;-87
2022/04/30 15:58:06;;;;;;;;;;;;;;;;;;;;;
2022/04/30 16:00:45;;;;;;;6.73;3.40;;;15.10;98.00;;;;;;5034080;28;20782;-88
2022/04/30 16:03:18;;;;;;;3.63;3.40;;;14.90;98.60;;;;;;5034059;28;20493;-92
2022/04/30 16:05:47;;;;;;;3.83;3.57;;;14.90;98.70;;;;;;5041836;28;20473;-90
2022/04/30 16:08:21;;;;;;;4.07;3.77;;;14.90;98.70;;;;;;5036800;28;20453;-90
2022/04/30 16:10:58;;;;;;;4.00;3.73;;;14.90;98.80;;;;;;5032995;28;20781;-88
2022/04/30 16:13:28;;;;;;;3.73;3.17;;;14.80;99.00;;;;;;5036780;28;20540;-88
2022/04/30 16:16:00;;;;;;;4.03;3.73;;;14.70;99.00;;;;;;5034566;28;20544;-89
2022/04/30 16:18:49;;;;;;;4.67;4.10;;;14.60;99.20;;;;;;5039569;28;20463;-92
2022/04/30 16:21:33;;;;;;;4.33;3.90;;;14.50;99.30;;;;;;5039275;28;20477;-92
2022/04/30 16:24:05;;;;;;;4.50;3.43;;;14.40;99.30;;;;;;5039767;28;20530;-89
2022/04/30 16:26:51;;;;;;;5.37;3.43;;;14.30;99.30;;;;;;5054577;28;20690;-93
2022/04/30 16:29:24;;;;;;;7.73;3.67;;;14.30;99.40;;;;;;5043981;28;20479;-90